WEATHER DATA

YESTERDAY
Time Temp. Dewp. Hum. Wind dir Wind speed Wind gust Bar. 1h Prec. 24h Prec.
00:02 8.8 4.4 74 9 0.8 1.4 1023.4 0.0000 0.0000
00:12 8.8 4.6 75 21 0.3 1.1 1023.3 0.0000 0.0000
00:22 8.7 4.5 75 9 0.3 1.1 1023.4 0.0000 0.0000
00:32 8.6 4.4 75 0 0.3 1.4 1023.3 0.0000 0.0000
00:42 8.7 4.5 75 7 0.8 1.4 1023.2 0.0000 0.0000
00:52 8.6 4.4 75 345 0.8 1.1 1023.3 0.0000 0.0000
01:02 8.4 4.2 75 334 0.8 1.4 1023.3 0.0000 0.0000
01:12 8.3 4.1 75 324 0.3 1.4 1023.4 0.0000 0.0000
01:22 8.2 4 75 343 0.8 1.1 1023.4 0.0000 0.0000
01:32 8.1 3.9 75 12 0.3 1.1 1023.4 0.0000 0.0000
01:42 8.1 3.9 75 357 0.3 1.1 1023.3 0.0000 0.0000
01:52 8 4 76 7 0.8 1.1 1023.3 0.0000 0.0000
02:02 8 4 76 12 0.3 1.1 1023.2 0.0000 0.0000
02:12 8 4 76 315 0.8 1.4 1023.2 0.0000 0.0000
02:22 8 4 76 335 0.3 1.1 1023.4 0.0000 0.0000
02:32 7.9 3.9 76 344 0.8 1.1 1023.3 0.0000 0.0000
02:42 7.9 3.9 76 0 0.3 1.1 1023.2 0.0000 0.0000
02:52 7.8 4 77 357 0.3 1.1 1023.3 0.0000 0.0000
03:02 7.8 4 77 26 0.3 1.4 1023.3 0.0000 0.0000
03:12 7.8 4 77 21 0.3 1.4 1023.2 0.0000 0.0000
03:23 7.7 3.9 77 2 0.8 1.4 1023.1 0.0000 0.0000
03:32 7.7 3.9 77 345 0.8 1.4 1023.1 0.0000 0.0000
03:42 7.7 3.9 77 351 0.8 1.7 1023.1 0.0000 0.0000
03:52 7.7 3.9 77 8 0.8 1.7 1022.9 0.0000 0.0000
04:03 7.7 3.9 77 6 0.3 1.1 1023.2 0.0000 0.0000
04:22 7.6 3.8 77 3 0.8 1.4 1023 0.0000 0.0000
04:33 7.6 3.8 77 4 0.8 1.4 1023 0.0000 0.0000
04:43 7.5 3.7 77 3 0.3 1.1 1022.9 0.0000 0.0000
04:52 7.4 3.6 77 341 0.3 1.1 1022.9 0.0000 0.0000
05:03 7.3 3.5 77 326 0.3 1.4 1022.9 0.0000 0.0000
05:22 7.2 3.6 78 0 0.8 1.4 1022.9 0.0000 0.0000
05:32 7.1 3.5 78 13 0.3 1.7 1022.7 0.0000 0.0000
05:43 7.1 3.7 79 18 0.3 1.1 1022.7 0.0000 0.0000
05:53 7.1 3.5 78 2 0.8 1.4 1022.7 0.0000 0.0000
06:02 7 3.4 78 14 0.3 0.8 1022.9 0.0000 0.0000
06:13 7 3.4 78 10 0.3 1.1 1022.7 0.0000 0.0000
06:23 7 3.4 78 0 0.8 1.1 1022.7 0.0000 0.0000
06:33 7 3.4 78 354 0.3 1.1 1022.7 0.0000 0.0000
06:42 6.9 3.3 78 338 0.8 1.4 1022.7 0.0000 0.0000
06:53 7 3.6 79 323 0.3 1.4 1022.7 0.0000 0.0000
07:03 6.9 3.3 78 338 0.3 1.1 1022.7 0.0000 0.0000
07:08 6.8 3.2 78 0 0.3 1.1 1022.7 0.0000 0.0000
07:18 6.8 3.2 78 341 0.3 1.1 1022.9 0.0000 0.0000
07:28 6.7 3.1 78 343 0.8 1.4 1022.8 0.0000 0.0000
07:38 6.7 3.3 79 351 0.3 1.4 1022.8 0.0000 0.0000
07:48 6.7 3.3 79 352 0.8 1.4 1022.8 0.0000 0.0000
07:59 6.8 3.4 79 351 0.3 1.1 1022.9 0.0000 0.0000
08:08 6.8 3.4 79 350 0.3 1.1 1023 0.0000 0.0000
08:18 6.9 3.5 79 345 0.8 2.2 1022.9 0.0000 0.0000
08:28 7 3.6 79 7 0.8 1.4 1023 0.0000 0.0000
08:38 7 3.6 79 0 0.8 1.4 1023.1 0.0000 0.0000
08:48 7.1 3.7 79 330 0.8 1.7 1023.1 0.0000 0.0000
08:58 7.1 3.7 79 357 0.8 1.1 1023.1 0.0000 0.0000
09:09 7.2 3.8 79 341 0.3 0.8 1023 0.0000 0.0000
09:18 7.2 3.8 79 7 0.3 1.1 1023.1 0.0000 0.0000
09:28 7.3 4.1 80 14 0.8 1.4 1023 0.0000 0.0000
09:38 7.5 4.3 80 8 0.3 1.1 1023.1 0.0000 0.0000
09:49 7.7 4.5 80 12 0.3 1.1 1023 0.0000 0.0000
09:58 7.9 4.7 80 8 0.3 2.2 1023.1 0.0000 0.0000
10:08 8.4 5.2 80 8 0.3 0.8 1023 0.0000 0.0000
10:19 8.8 5.5 80 8 0.3 1.1 1023 0.0000 0.0000
10:38 10.3 7 80 6 0.3 1.4 1022.9 0.0000 0.0000
10:49 13.1 8.8 75 5 0.3 0.8 1022.9 0.0000 0.0000
10:59 14.6 9.4 71 10 0.3 1.1 1022.9 0.0000 0.0000
11:08 15.2 9.3 68 333 0.3 1.1 1022.8 0.0000 0.0000
11:18 15.5 9.2 66 6 0.3 1.1 1022.9 0.0000 0.0000
11:29 16 9.7 66 303 0.3 0.8 1022.8 0.0000 0.0000
11:39 16.5 9.9 65 324 0.3 1.4 1022.7 0.0000 0.0000
11:49 17.2 10.1 63 270 0.3 0.8 1022.6 0.0000 0.0000
11:59 17.8 10.2 61 225 0.3 0.8 1022.5 0.0000 0.0000
12:10 18.2 9.8 58 156 0.8 1.7 1022.5 0.0000 0.0000
12:19 18.6 10.2 58 239 0.3 1.4 1022.5 0.0000 0.0000
12:29 18.8 9.8 56 171 0.3 1.7 1022.2 0.0000 0.0000
12:40 19.1 10.4 57 206 0.3 1.4 1022.1 0.0000 0.0000
13:00 19.7 10.7 56 239 0.3 1.4 1021.9 0.0000 0.0000
13:10 19.9 10.9 56 315 0.8 2.2 1021.9 0.0000 0.0000
13:21 20.2 10.9 55 315 0.8 2.5 1021.7 0.0000 0.0000
13:30 20.4 11.3 56 306 0.3 2.2 1021.8 0.0000 0.0000
13:40 20.6 10.1 51 210 0.8 1.7 1021.7 0.0000 0.0000
13:51 20.6 11 54 270 0.3 1.4 1021.6 0.0000 0.0000
14:01 20.5 10.9 54 270 0.3 1.4 1021.5 0.0000 0.0000
14:11 20.5 10.9 54 270 0.3 1.4 1021.5 0.0000 0.0000
14:21 20.7 11.1 54 270 0.3 1.7 1021.5 0.0000 0.0000
14:32 20.9 11.3 54 323 0.8 2.5 1021.3 0.0000 0.0000
14:41 20.9 11 53 308 0.8 2.5 1021.3 0.0000 0.0000
14:51 20.8 10.6 52 315 0.3 1.4 1021.3 0.0000 0.0000
15:01 20.6 10.7 53 315 0.3 1.1 1021.3 0.0000 0.0000
15:12 19.9 10 53 210 0.3 1.4 1021.2 0.0000 0.0000
15:22 19.1 9.9 55 191 0.8 2.2 1021.2 0.0000 0.0000
15:32 18.8 9.8 56 194 0.3 1.7 1021.2 0.0000 0.0000
15:42 19 10 56 166 0.8 2.8 1021.1 0.0000 0.0000
15:52 19.1 10.1 56 194 0.8 2.5 1021 0.0000 0.0000
16:02 19.2 10.2 56 180 0.8 1.7 1021 0.0000 0.0000
16:12 19.2 10.5 57 186 0.8 1.7 1021 0.0000 0.0000
16:23 19 10.3 57 192 0.8 1.7 1021.1 0.0000 0.0000
16:33 18.6 10.2 58 7 0.8 1.4 1020.9 0.0000 0.0000
16:43 18.1 10 59 323 0.8 1.1 1021 0.0000 0.0000
16:53 17.5 9.7 60 8 0.3 0.8 1021.1 0.0000 0.0000
17:04 17 9.7 62 20 0.3 1.1 1021 0.0000 0.0000
17:13 16.7 9.4 62 12 0.8 1.4 1021 0.0000 0.0000
17:23 16.2 9.4 64 21 0.3 1.1 1021 0.0000 0.0000
17:34 15.8 9.2 65 16 0.3 1.1 1021.1 0.0000 0.0000
17:44 15.5 9 65 0 0.3 1.1 1021.1 0.0000 0.0000
17:54 15.1 9 67 8 0.3 1.1 1021.2 0.0000 0.0000
18:04 14.7 8.9 68 18 0.3 1.1 1021.1 0.0000 0.0000
18:14 14.3 8.5 68 351 0.3 1.1 1021.2 0.0000 0.0000
18:24 14.1 8.5 69 8 0.3 0.8 1021.2 0.0000 0.0000
18:34 13.7 8.1 69 341 0.3 1.1 1021.2 0.0000 0.0000
18:44 13.5 8.1 70 9 0.3 0.8 1021.3 0.0000 0.0000
18:52 13.3 8 70 341 0.3 0.8 1021.5 0.0000 0.0000
19:15 12.7 7.4 70 21 0.3 1.1 1021.6 0.0000 0.0000
19:25 12.4 7.3 71 23 0.3 0.8 1021.7 0.0000 0.0000
19:35 12.3 7.2 71 14 0.3 1.1 1021.8 0.0000 0.0000
19:45 12.1 7 71 12 0.8 1.1 1021.8 0.0000 0.0000
19:55 11.9 7 72 4 0.3 1.1 1021.7 0.0000 0.0000
20:06 11.7 7 73 18 0.3 1.1 1021.8 0.0000 0.0000
20:16 11.5 6.8 73 18 0.3 1.1 1021.9 0.0000 0.0000
20:26 11.3 6.6 73 23 0.3 1.1 1021.8 0.0000 0.0000
20:36 11.2 6.5 73 8 0.3 1.1 1021.8 0.0000 0.0000
20:46 11 6.4 73 15 0.3 1.1 1021.9 0.0000 0.0000
20:56 10.9 6.3 73 6 0.3 1.1 1022.1 0.0000 0.0000
21:06 10.5 5.9 73 11 0.3 1.1 1022.1 0.0000 0.0000
21:16 10.4 5.8 73 18 0.3 0.8 1022.2 0.0000 0.0000
21:27 10.2 5.8 74 18 0.3 0.8 1022.3 0.0000 0.0000
21:37 10 5.6 74 26 0.3 1.1 1022.5 0.0000 0.0000
21:47 9.9 5.5 74 25 0.3 1.1 1022.5 0.0000 0.0000
21:57 9.7 5.3 74 25 0.3 0.8 1022.6 0.0000 0.0000
22:07 9.6 5.4 75 11 0.3 0.8 1022.5 0.0000 0.0000
22:27 9.5 5.3 75 5 0.3 1.1 1022.3 0.0000 0.0000
22:38 9.3 5.3 76 3 0.3 1.1 1022.2 0.0000 0.0000
22:48 9.2 5.4 77 0 0.3 1.1 1022.3 0.0000 0.0000
22:57 9.2 5.4 77 0 0.3 1.1 1022.2 0.0000 0.0000
23:07 9 5.2 77 315 0.3 1.1 1022.2 0.0000 0.0000
23:18 8.9 5.3 78 3 0.3 1.1 1022.2 0.0000 0.0000
23:28 8.8 5.2 78 0 0.8 1.7 1022.1 0.0000 0.0000
23:38 8.7 5.1 78 354 0.3 1.4 1022 0.0000 0.0000
23:49 8.6 5.2 79 4 0.3 1.4 1022.1 0.0000 0.0000

DAY STATISTIC

2018-10-17
TEMPERATURE
AVERAGE
11.7
HIGH
20.9
14:32
LOW
6.7
07:28
PRESSURE
AVERAGE
1022.4
HIGH
1023.4
00:02
LOW
1020.9
16:33
DEWPOINT
AVERAGE
6.4
HIGH
11.3
13:30
LOW
3.1
07:28
HUMIDITY
AVERAGE
71
HIGH
80
09:28
LOW
51
13:40
WIND SPEED
AVERAGE
0.5
HIGH
0.8
00:02
WIND GUST
AVERAGE
1.3
HIGH
2.8
15:42
WIND DIRECTION
PREVAILING
N
67.2%
N
67.2
NE
4.4
E
0.0
SE
0.7
S
5.8
SW
4.4
W
3.6
NW
13.9
PRECIPITATION
RAIN HOUR
0.0
RAIN DAY
0.0
TEMPERATURE (°C)
LOW
6.7
HIGH
20.9
AVERAGE
11.7
PRESSURE (hpa)
LOW
1020.9
HIGH
1023.4
AVERAGE
1022.4
DEVICE